createdAt,value
2023-12-08T00:00:40.469Z,100.00
2023-12-08T00:01:37.096Z,100.00
2023-12-08T00:02:34.084Z,100.00
2023-12-08T00:03:30.766Z,100.00
2023-12-08T00:04:27.590Z,100.00
2023-12-08T00:05:24.286Z,100.00
2023-12-08T00:06:21.538Z,100.00
2023-12-08T00:07:18.228Z,100.00
2023-12-08T00:08:14.819Z,100.00
2023-12-08T00:09:11.441Z,100.00
2023-12-08T00:10:08.385Z,100.00
2023-12-08T00:11:06.419Z,100.00
2023-12-08T00:12:03.549Z,100.00
2023-12-08T00:13:00.586Z,100.00
2023-12-08T00:13:57.236Z,100.00
2023-12-08T00:14:54.052Z,100.00
2023-12-08T00:15:50.734Z,100.00
2023-12-08T00:16:47.351Z,100.00
2023-12-08T00:17:44.572Z,100.00
2023-12-08T00:18:41.498Z,100.00
2023-12-08T00:19:38.790Z,100.00
2023-12-08T00:20:35.580Z,100.00
2023-12-08T00:21:32.216Z,100.00
2023-12-08T00:22:28.867Z,100.00
2023-12-08T00:23:25.484Z,100.00
2023-12-08T00:24:22.178Z,100.00
2023-12-08T00:25:18.844Z,100.00
2023-12-08T00:26:15.643Z,100.00
2023-12-08T00:27:12.364Z,100.00
2023-12-08T00:28:09.734Z,100.00
2023-12-08T00:29:06.383Z,100.00
2023-12-08T00:30:03.105Z,100.00
2023-12-08T00:30:59.878Z,100.00
2023-12-08T00:31:56.527Z,100.00
2023-12-08T00:32:53.528Z,100.00
2023-12-08T00:33:50.327Z,100.00
2023-12-08T00:34:47.552Z,100.00
2023-12-08T00:35:44.257Z,100.00
2023-12-08T00:36:43.787Z,100.00
2023-12-08T00:37:40.435Z,100.00
2023-12-08T00:38:37.057Z,100.00
2023-12-08T00:39:33.718Z,100.00
2023-12-08T00:40:30.369Z,100.00
2023-12-08T00:41:27.212Z,100.00
2023-12-08T00:42:23.941Z,100.00
2023-12-08T00:43:20.512Z,100.00
2023-12-08T00:44:17.514Z,100.00
2023-12-08T00:45:14.920Z,100.00
2023-12-08T00:46:11.621Z,100.00
2023-12-08T00:47:08.232Z,100.00
2023-12-08T00:48:05.373Z,100.00
2023-12-08T00:49:02.318Z,100.00
2023-12-08T00:49:59.109Z,100.00
2023-12-08T00:50:55.791Z,100.00
2023-12-08T00:51:52.485Z,100.00
2023-12-08T00:52:49.103Z,100.00
2023-12-08T00:53:45.780Z,100.00
2023-12-08T00:54:42.539Z,100.00
2023-12-08T00:55:39.207Z,100.00
2023-12-08T00:56:35.817Z,100.00
2023-12-08T00:57:32.508Z,100.00
2023-12-08T00:58:29.237Z,100.00
2023-12-08T00:59:25.893Z,100.00
2023-12-08T01:00:22.641Z,100.00
2023-12-08T01:01:21.046Z,100.00
2023-12-08T01:02:17.943Z,100.00
2023-12-08T01:03:15.587Z,100.00
2023-12-08T01:04:12.481Z,100.00
2023-12-08T01:05:09.501Z,100.00
2023-12-08T01:06:06.478Z,100.00
2023-12-08T01:07:03.304Z,100.00
2023-12-08T01:07:59.965Z,100.00
2023-12-08T01:08:56.590Z,100.00
2023-12-08T01:09:53.320Z,100.00
2023-12-08T01:10:49.917Z,100.00
2023-12-08T01:11:46.588Z,100.00
2023-12-08T01:12:44.558Z,100.00
2023-12-08T01:13:41.315Z,100.00
2023-12-08T01:14:38.343Z,100.00
2023-12-08T01:15:35.008Z,100.00
2023-12-08T01:16:31.690Z,100.00
2023-12-08T01:17:28.516Z,100.00
2023-12-08T01:18:25.386Z,100.00
2023-12-08T01:19:22.096Z,100.00
2023-12-08T01:20:18.790Z,100.00
2023-12-08T01:21:15.411Z,100.00
2023-12-08T01:22:12.054Z,100.00
2023-12-08T01:23:08.691Z,100.00
2023-12-08T01:24:06.459Z,100.00
2023-12-08T01:25:03.384Z,100.00
2023-12-08T01:25:59.985Z,100.00
2023-12-08T01:26:56.757Z,100.00
2023-12-08T01:27:55.256Z,100.00
2023-12-08T01:28:51.906Z,100.00
2023-12-08T01:29:48.591Z,100.00
2023-12-08T01:30:45.307Z,100.00
2023-12-08T01:31:41.929Z,100.00
2023-12-08T01:32:38.704Z,100.00
2023-12-08T01:33:35.601Z,100.00
2023-12-08T01:34:32.378Z,100.00
2023-12-08T01:35:29.056Z,100.00
2023-12-08T01:36:41.598Z,100.00
2023-12-08T01:37:40.829Z,100.00
2023-12-08T01:38:38.081Z,100.00
2023-12-08T01:39:34.693Z,100.00
2023-12-08T01:40:31.310Z,100.00
2023-12-08T01:41:27.913Z,100.00
2023-12-08T01:42:24.781Z,100.00
2023-12-08T01:43:21.465Z,100.00
2023-12-08T01:44:18.182Z,100.00
2023-12-08T01:45:15.156Z,100.00
2023-12-08T01:46:19.049Z,100.00
2023-12-08T01:47:16.650Z,100.00
2023-12-08T01:48:13.609Z,100.00
2023-12-08T01:49:10.822Z,100.00
2023-12-08T01:50:09.707Z,100.00
2023-12-08T01:51:06.805Z,100.00
2023-12-08T01:52:04.128Z,100.00
2023-12-08T01:53:01.235Z,100.00
2023-12-08T01:53:58.149Z,100.00
2023-12-08T01:54:57.897Z,100.00
2023-12-08T01:55:54.952Z,100.00
2023-12-08T01:56:51.763Z,100.00
2023-12-08T01:57:48.604Z,100.00
2023-12-08T01:58:45.792Z,100.00
2023-12-08T01:59:42.668Z,100.00
2023-12-08T02:00:40.642Z,100.00
2023-12-08T02:01:38.024Z,100.00
2023-12-08T02:02:35.967Z,100.00
2023-12-08T02:03:36.647Z,100.00
2023-12-08T02:04:33.461Z,100.00
2023-12-08T02:05:31.710Z,100.00
2023-12-08T02:06:28.481Z,100.00
2023-12-08T02:07:26.509Z,100.00
2023-12-08T02:08:23.654Z,100.00
2023-12-08T02:09:21.296Z,100.00
2023-12-08T02:10:18.028Z,100.00
2023-12-08T02:11:17.842Z,100.00
2023-12-08T02:12:15.254Z,100.00
2023-12-08T02:13:17.394Z,100.00
2023-12-08T02:14:15.090Z,100.00
2023-12-08T02:15:13.732Z,100.00
2023-12-08T02:16:19.366Z,100.00
2023-12-08T02:17:29.600Z,100.00
2023-12-08T02:18:27.508Z,100.00
2023-12-08T02:19:25.346Z,100.00
2023-12-08T02:20:22.433Z,100.00
2023-12-08T02:21:19.924Z,100.00
2023-12-08T02:22:22.842Z,100.00
2023-12-08T02:23:19.487Z,100.00
2023-12-08T02:24:20.537Z,100.00
2023-12-08T02:25:17.337Z,100.00
2023-12-08T02:26:14.067Z,100.00
2023-12-08T02:27:12.366Z,100.00
2023-12-08T02:28:09.144Z,100.00
2023-12-08T02:29:09.818Z,100.00
2023-12-08T02:30:07.735Z,100.00
2023-12-08T02:31:10.044Z,100.00
2023-12-08T02:32:24.150Z,100.00
2023-12-08T02:33:31.111Z,100.00
2023-12-08T02:34:29.753Z,100.00
2023-12-08T02:35:28.720Z,100.00
2023-12-08T02:36:26.871Z,100.00
2023-12-08T02:37:25.053Z,100.00
2023-12-08T02:38:22.849Z,100.00
2023-12-08T02:39:21.498Z,100.00
2023-12-08T02:40:19.245Z,100.00
2023-12-08T02:41:16.045Z,100.00
2023-12-08T02:42:12.912Z,100.00
2023-12-08T02:43:10.377Z,100.00
2023-12-08T02:44:07.037Z,100.00
2023-12-08T02:45:05.071Z,100.00
2023-12-08T02:46:01.865Z,100.00
2023-12-08T02:46:58.886Z,100.00
2023-12-08T02:47:55.576Z,100.00
2023-12-08T02:48:54.849Z,100.00
2023-12-08T02:49:52.286Z,100.00
2023-12-08T02:50:48.953Z,100.00
2023-12-08T02:51:45.661Z,100.00
2023-12-08T02:52:42.329Z,100.00
2023-12-08T02:53:38.954Z,100.00
2023-12-08T02:54:35.629Z,100.00
2023-12-08T02:55:32.560Z,100.00
2023-12-08T02:56:29.218Z,100.00
2023-12-08T02:57:26.065Z,100.00
2023-12-08T02:58:22.824Z,100.00
2023-12-08T02:59:19.482Z,100.00
2023-12-08T03:00:16.368Z,100.00
2023-12-08T03:01:13.224Z,100.00
2023-12-08T03:02:09.911Z,100.00
2023-12-08T03:03:06.726Z,100.00
2023-12-08T03:04:03.621Z,100.00
2023-12-08T03:05:00.303Z,100.00
2023-12-08T03:05:56.957Z,100.00
2023-12-08T03:06:53.643Z,100.00
2023-12-08T03:07:50.235Z,100.00
2023-12-08T03:08:46.840Z,100.00
2023-12-08T03:09:43.563Z,100.00
2023-12-08T03:10:40.202Z,100.00
2023-12-08T03:11:36.889Z,100.00
2023-12-08T03:12:33.704Z,100.00
2023-12-08T03:13:30.326Z,100.00
2023-12-08T03:14:26.988Z,100.00
2023-12-08T03:15:24.406Z,100.00
2023-12-08T03:16:21.050Z,100.00
2023-12-08T03:17:17.761Z,100.00
2023-12-08T03:18:14.732Z,100.00
2023-12-08T03:19:11.477Z,100.00
2023-12-08T03:20:08.645Z,100.00
2023-12-08T03:21:05.769Z,100.00
2023-12-08T03:22:02.504Z,100.00
2023-12-08T03:22:59.242Z,100.00
2023-12-08T03:23:55.977Z,100.00
2023-12-08T03:24:52.680Z,100.00
2023-12-08T03:25:49.386Z,100.00
2023-12-08T03:26:47.568Z,100.00
2023-12-08T03:27:44.220Z,100.00
2023-12-08T03:28:40.805Z,100.00
2023-12-08T03:29:41.515Z,100.00
2023-12-08T03:30:38.243Z,100.00
2023-12-08T03:31:34.909Z,100.00
2023-12-08T03:32:32.221Z,100.00
2023-12-08T03:33:29.115Z,100.00
2023-12-08T03:34:25.969Z,100.00
2023-12-08T03:35:22.599Z,100.00
2023-12-08T03:36:19.464Z,100.00
2023-12-08T03:37:16.129Z,100.00
2023-12-08T03:38:12.851Z,100.00
2023-12-08T03:39:09.520Z,100.00
2023-12-08T03:40:06.949Z,100.00
2023-12-08T03:41:03.681Z,100.00
2023-12-08T03:42:00.337Z,100.00
2023-12-08T03:42:57.392Z,100.00
2023-12-08T03:43:54.107Z,100.00
2023-12-08T03:44:51.602Z,100.00
2023-12-08T03:45:48.404Z,100.00
2023-12-08T03:46:45.459Z,100.00
2023-12-08T03:47:43.012Z,100.00
2023-12-08T03:48:39.979Z,100.00
2023-12-08T03:49:36.821Z,100.00
2023-12-08T03:50:33.582Z,100.00
2023-12-08T03:51:33.235Z,100.00
2023-12-08T03:52:30.026Z,100.00
2023-12-08T03:53:26.681Z,100.00
2023-12-08T03:54:23.366Z,100.00
2023-12-08T03:55:19.993Z,100.00
2023-12-08T03:56:16.619Z,100.00
2023-12-08T03:57:13.293Z,100.00
2023-12-08T03:58:09.921Z,100.00
2023-12-08T03:59:06.611Z,100.00
2023-12-08T04:00:03.527Z,100.00
2023-12-08T04:01:00.215Z,100.00
2023-12-08T04:01:56.923Z,100.00
2023-12-08T04:02:53.567Z,100.00
2023-12-08T04:03:50.389Z,100.00
2023-12-08T04:04:47.167Z,100.00
2023-12-08T04:05:43.921Z,100.00
2023-12-08T04:06:40.663Z,100.00
2023-12-08T04:07:37.315Z,100.00
2023-12-08T04:08:34.006Z,100.00
2023-12-08T04:09:30.928Z,100.00
2023-12-08T04:10:27.532Z,100.00
2023-12-08T04:11:24.198Z,100.00
2023-12-08T04:12:21.622Z,100.00
2023-12-08T04:13:18.467Z,100.00
2023-12-08T04:14:15.197Z,100.00
2023-12-08T04:15:11.949Z,100.00
2023-12-08T04:16:09.321Z,100.00
2023-12-08T04:17:06.051Z,100.00
2023-12-08T04:18:03.105Z,100.00
2023-12-08T04:18:59.922Z,100.00
2023-12-08T04:19:56.613Z,100.00
2023-12-08T04:20:53.444Z,100.00
2023-12-08T04:21:50.172Z,100.00
2023-12-08T04:22:46.918Z,100.00
2023-12-08T04:23:43.551Z,100.00
2023-12-08T04:24:40.178Z,100.00
2023-12-08T04:25:36.901Z,100.00
2023-12-08T04:26:33.576Z,100.00
2023-12-08T04:27:30.202Z,100.00
2023-12-08T04:28:26.868Z,100.00
2023-12-08T04:29:23.546Z,100.00
2023-12-08T04:30:20.281Z,100.00
2023-12-08T04:31:17.007Z,100.00
2023-12-08T04:32:13.630Z,100.00
2023-12-08T04:33:10.720Z,100.00
2023-12-08T04:34:07.626Z,100.00
2023-12-08T04:35:04.550Z,100.00
2023-12-08T04:36:01.208Z,100.00
2023-12-08T04:36:57.977Z,100.00
2023-12-08T04:37:54.734Z,100.00
2023-12-08T04:38:51.453Z,100.00
2023-12-08T04:39:48.040Z,100.00
2023-12-08T04:40:46.347Z,100.00
2023-12-08T04:41:43.701Z,100.00
2023-12-08T04:42:40.513Z,100.00
2023-12-08T04:43:37.452Z,100.00
2023-12-08T04:44:34.539Z,100.00
2023-12-08T04:45:31.205Z,100.00
2023-12-08T04:46:27.854Z,100.00
2023-12-08T04:47:24.932Z,100.00
2023-12-08T04:48:21.963Z,100.00
2023-12-08T04:49:19.910Z,100.00
2023-12-08T04:50:16.832Z,100.00
2023-12-08T04:51:13.489Z,100.00
2023-12-08T04:52:10.204Z,100.00
2023-12-08T04:53:06.811Z,100.00
2023-12-08T04:54:03.559Z,100.00
2023-12-08T04:55:02.224Z,100.00
2023-12-08T04:55:59.148Z,100.00
2023-12-08T04:56:56.099Z,100.00
2023-12-08T04:57:52.811Z,100.00
2023-12-08T04:58:49.532Z,100.00
2023-12-08T04:59:46.210Z,100.00
2023-12-08T05:00:42.898Z,100.00
2023-12-08T05:01:39.540Z,100.00
2023-12-08T05:02:36.292Z,100.00
2023-12-08T05:03:33.099Z,100.00
2023-12-08T05:04:29.888Z,100.00
2023-12-08T05:05:27.501Z,100.00
2023-12-08T05:06:27.631Z,100.00
2023-12-08T05:07:24.708Z,100.00
2023-12-08T05:08:21.773Z,100.00
2023-12-08T05:09:18.406Z,100.00
2023-12-08T05:10:15.174Z,100.00
2023-12-08T05:11:11.820Z,100.00
2023-12-08T05:12:08.654Z,100.00
2023-12-08T05:13:05.462Z,100.00
2023-12-08T05:14:02.092Z,100.00
2023-12-08T05:14:58.909Z,100.00
2023-12-08T05:15:55.516Z,100.00
2023-12-08T05:16:52.212Z,100.00
2023-12-08T05:17:50.041Z,100.00
2023-12-08T05:18:46.916Z,100.00
2023-12-08T05:19:44.011Z,100.00
2023-12-08T05:20:41.095Z,100.00
2023-12-08T05:21:37.858Z,100.00
2023-12-08T05:22:34.515Z,100.00
2023-12-08T05:23:31.119Z,100.00
2023-12-08T05:24:27.738Z,100.00
2023-12-08T05:25:24.373Z,100.00
2023-12-08T05:26:21.342Z,100.00
2023-12-08T05:27:18.024Z,100.00
2023-12-08T05:28:14.694Z,100.00
2023-12-08T05:29:11.328Z,100.00
2023-12-08T05:30:08.830Z,100.00
2023-12-08T05:31:06.186Z,100.00
2023-12-08T05:32:03.388Z,100.00
2023-12-08T05:33:00.481Z,100.00
2023-12-08T05:33:57.427Z,100.00
2023-12-08T05:34:54.551Z,100.00
2023-12-08T05:35:51.450Z,100.00
2023-12-08T05:36:48.181Z,100.00
2023-12-08T05:37:44.834Z,100.00
2023-12-08T05:38:41.580Z,100.00
2023-12-08T05:39:38.293Z,100.00
2023-12-08T05:40:35.046Z,100.00
2023-12-08T05:41:31.728Z,100.00
2023-12-08T05:42:28.414Z,100.00
2023-12-08T05:43:25.054Z,100.00
2023-12-08T05:44:21.682Z,100.00
2023-12-08T05:45:18.463Z,100.00
2023-12-08T05:46:15.156Z,100.00
2023-12-08T05:47:11.815Z,100.00
2023-12-08T05:48:08.704Z,100.00
2023-12-08T05:49:05.527Z,100.00
2023-12-08T05:50:03.627Z,100.00
2023-12-08T05:51:00.459Z,100.00
2023-12-08T05:51:57.232Z,100.00
2023-12-08T05:52:53.925Z,100.00
2023-12-08T05:53:50.606Z,100.00
2023-12-08T05:54:47.396Z,100.00
2023-12-08T05:55:44.021Z,99.85
2023-12-08T05:56:41.163Z,100.00
2023-12-08T05:57:37.913Z,100.00
2023-12-08T05:58:34.642Z,100.00
2023-12-08T05:59:31.385Z,100.00
2023-12-08T06:00:28.035Z,100.00
2023-12-08T06:01:24.712Z,100.00
2023-12-08T06:02:22.726Z,100.00
2023-12-08T06:03:19.351Z,100.00
2023-12-08T06:04:16.027Z,100.00
2023-12-08T06:05:14.254Z,100.00
2023-12-08T06:06:10.992Z,100.00
2023-12-08T06:07:07.940Z,100.00
2023-12-08T06:08:04.881Z,100.00
2023-12-08T06:09:02.044Z,100.00
2023-12-08T06:09:58.669Z,100.00
2023-12-08T06:10:55.288Z,100.00
2023-12-08T06:11:52.146Z,100.00
2023-12-08T06:12:50.249Z,100.00
2023-12-08T06:13:46.854Z,100.00
2023-12-08T06:14:43.512Z,100.00
2023-12-08T06:15:40.369Z,100.00
2023-12-08T06:16:37.700Z,100.00
2023-12-08T06:17:34.485Z,100.00
2023-12-08T06:18:31.492Z,100.00
2023-12-08T06:19:28.171Z,100.00
2023-12-08T06:20:24.808Z,100.00
2023-12-08T06:21:21.380Z,100.00
2023-12-08T06:22:18.006Z,100.00
2023-12-08T06:23:14.922Z,100.00
2023-12-08T06:24:11.737Z,100.00
2023-12-08T06:25:08.813Z,100.00
2023-12-08T06:26:05.605Z,100.00
2023-12-08T06:27:02.235Z,100.00
2023-12-08T06:27:58.894Z,100.00
2023-12-08T06:28:55.657Z,100.00
2023-12-08T06:29:52.266Z,100.00
2023-12-08T06:30:49.110Z,100.00
2023-12-08T06:31:45.965Z,100.00
2023-12-08T06:32:42.682Z,100.00
2023-12-08T06:33:39.574Z,100.00
2023-12-08T06:34:36.417Z,100.00
2023-12-08T06:35:33.132Z,100.00
2023-12-08T06:36:29.743Z,100.00
2023-12-08T06:37:26.645Z,100.00
2023-12-08T06:38:23.462Z,100.00
2023-12-08T06:39:20.153Z,100.00
2023-12-08T06:40:16.895Z,100.00
2023-12-08T06:41:13.610Z,100.00
2023-12-08T06:42:10.393Z,100.00
2023-12-08T06:43:07.050Z,100.00
2023-12-08T06:44:03.751Z,100.00
2023-12-08T06:45:00.520Z,100.00
2023-12-08T06:45:57.951Z,100.00
2023-12-08T06:46:54.685Z,100.00
2023-12-08T06:47:51.494Z,100.00
2023-12-08T06:48:48.476Z,100.00
2023-12-08T06:49:45.353Z,100.00
2023-12-08T06:50:42.180Z,100.00
2023-12-08T06:51:38.834Z,100.00
2023-12-08T06:52:35.491Z,100.00
2023-12-08T06:53:32.179Z,100.00
2023-12-08T06:54:28.808Z,100.00
2023-12-08T06:55:26.228Z,100.00
2023-12-08T06:56:23.315Z,100.00
2023-12-08T06:57:19.952Z,100.00
2023-12-08T06:58:16.644Z,100.00
2023-12-08T06:59:13.299Z,100.00
2023-12-08T07:00:11.888Z,100.00
2023-12-08T07:01:08.750Z,100.00
2023-12-08T07:02:05.474Z,100.00
2023-12-08T07:03:02.314Z,100.00
2023-12-08T07:03:59.048Z,100.00
2023-12-08T07:04:55.683Z,100.00
2023-12-08T07:05:52.378Z,100.00
2023-12-08T07:06:49.102Z,100.00
2023-12-08T07:07:46.153Z,100.00
2023-12-08T07:08:42.863Z,100.00
2023-12-08T07:09:39.633Z,100.00
2023-12-08T07:10:37.080Z,100.00
2023-12-08T07:11:34.883Z,100.00
2023-12-08T07:12:31.747Z,100.00
2023-12-08T07:13:28.474Z,100.00
2023-12-08T07:14:25.219Z,100.00
2023-12-08T07:15:21.978Z,100.00
2023-12-08T07:16:18.854Z,100.00
2023-12-08T07:17:15.613Z,100.00
2023-12-08T07:18:12.550Z,100.00
2023-12-08T07:19:09.399Z,100.00
2023-12-08T07:20:07.731Z,100.00
2023-12-08T07:21:05.556Z,100.00
2023-12-08T07:22:02.250Z,100.00
2023-12-08T07:22:58.951Z,100.00
2023-12-08T07:23:55.765Z,100.00
2023-12-08T07:24:52.652Z,100.00
2023-12-08T07:25:49.300Z,100.00
2023-12-08T07:26:45.951Z,100.00
2023-12-08T07:27:43.879Z,100.00
2023-12-08T07:28:40.649Z,100.00
2023-12-08T07:29:38.107Z,100.00
2023-12-08T07:30:34.859Z,100.00
2023-12-08T07:31:31.516Z,100.00
2023-12-08T07:32:28.213Z,100.00
2023-12-08T07:33:25.150Z,100.00
2023-12-08T07:34:22.074Z,100.00
2023-12-08T07:35:18.779Z,100.00
2023-12-08T07:36:15.534Z,100.00
2023-12-08T07:37:12.170Z,100.00
2023-12-08T07:38:08.788Z,100.00
2023-12-08T07:39:05.725Z,100.00
2023-12-08T07:40:02.375Z,100.00
2023-12-08T07:40:59.041Z,100.00
2023-12-08T07:41:56.267Z,100.00
2023-12-08T07:42:52.989Z,100.00
2023-12-08T07:43:50.065Z,100.00
2023-12-08T07:44:47.158Z,100.00
2023-12-08T07:45:43.834Z,100.00
2023-12-08T07:46:40.599Z,100.00
2023-12-08T07:47:39.212Z,100.00
2023-12-08T07:48:36.106Z,100.00
2023-12-08T07:49:32.961Z,100.00
2023-12-08T07:50:29.614Z,100.00
2023-12-08T07:51:26.305Z,100.00
2023-12-08T07:52:22.919Z,100.00
2023-12-08T07:53:19.736Z,100.00
2023-12-08T07:54:16.431Z,100.00
2023-12-08T07:55:13.241Z,100.00
2023-12-08T07:56:10.132Z,100.00
2023-12-08T07:57:07.010Z,100.00
2023-12-08T07:58:04.836Z,100.00
2023-12-08T07:59:01.773Z,100.00
2023-12-08T07:59:59.302Z,100.00
2023-12-08T08:00:55.934Z,100.00
2023-12-08T08:01:53.036Z,100.00
2023-12-08T08:02:50.038Z,100.00
2023-12-08T08:03:46.851Z,100.00
2023-12-08T08:04:43.603Z,100.00
2023-12-08T08:05:40.295Z,100.00
2023-12-08T08:06:37.119Z,100.00
2023-12-08T08:07:34.132Z,100.00
2023-12-08T08:08:31.060Z,100.00
2023-12-08T08:09:27.699Z,100.00
2023-12-08T08:10:24.293Z,100.00
2023-12-08T08:11:20.981Z,100.00
2023-12-08T08:12:17.859Z,100.00
2023-12-08T08:13:15.262Z,100.00
2023-12-08T08:14:12.225Z,100.00
2023-12-08T08:15:09.470Z,100.00
2023-12-08T08:16:06.489Z,100.00
2023-12-08T08:17:03.268Z,100.00
2023-12-08T08:18:00.061Z,100.00
2023-12-08T08:18:56.893Z,100.00
2023-12-08T08:19:53.643Z,100.00
2023-12-08T08:20:50.578Z,100.00
2023-12-08T08:22:26.800Z,99.54
2023-12-08T08:23:03.929Z,100.00
2023-12-08T08:24:00.844Z,100.00
2023-12-08T08:24:58.335Z,99.79
2023-12-08T08:25:55.933Z,99.56
2023-12-08T08:26:53.303Z,98.82
2023-12-08T08:27:54.073Z,98.84
2023-12-08T08:28:50.887Z,98.45
2023-12-08T08:29:47.545Z,97.69
2023-12-08T08:30:47.631Z,98.35
2023-12-08T08:31:44.272Z,97.04
2023-12-08T08:32:40.989Z,97.30
2023-12-08T08:33:37.870Z,97.63
2023-12-08T08:34:34.809Z,97.57
2023-12-08T08:35:31.628Z,97.34
2023-12-08T08:36:28.331Z,97.21
2023-12-08T08:37:26.230Z,97.01
2023-12-08T08:38:23.069Z,97.45
2023-12-08T08:39:19.961Z,97.86
2023-12-08T08:40:16.698Z,97.17
2023-12-08T08:41:15.322Z,97.31
2023-12-08T08:42:12.628Z,97.07
2023-12-08T08:43:09.395Z,97.20
2023-12-08T08:44:06.048Z,98.07
2023-12-08T08:45:02.672Z,97.98
2023-12-08T08:45:59.319Z,97.76
2023-12-08T08:46:55.945Z,97.99
2023-12-08T08:47:52.855Z,97.62
2023-12-08T08:48:49.867Z,97.50
2023-12-08T08:49:46.843Z,97.98
2023-12-08T08:50:49.616Z,97.95
2023-12-08T08:51:47.757Z,98.90
2023-12-08T08:52:44.446Z,97.92
2023-12-08T08:53:41.127Z,97.89
2023-12-08T08:54:37.725Z,97.98
2023-12-08T08:55:36.154Z,97.49
2023-12-08T08:56:33.094Z,97.47
2023-12-08T08:57:30.053Z,97.21
2023-12-08T08:58:26.936Z,96.32
2023-12-08T08:59:23.709Z,96.41
2023-12-08T09:00:22.754Z,96.38
2023-12-08T09:01:19.506Z,96.47
2023-12-08T09:02:16.232Z,97.39
2023-12-08T09:03:12.900Z,97.75
2023-12-08T09:04:09.698Z,97.39
2023-12-08T09:05:07.095Z,97.43
2023-12-08T09:06:04.030Z,96.77
2023-12-08T09:07:00.816Z,97.82
2023-12-08T09:07:58.175Z,97.49
2023-12-08T09:08:54.888Z,97.25
2023-12-08T09:09:52.024Z,97.53
2023-12-08T09:10:51.684Z,97.83
2023-12-08T09:11:48.371Z,97.23
2023-12-08T09:12:45.128Z,98.97
2023-12-08T09:13:41.815Z,100.00
2023-12-08T09:14:39.558Z,100.00
2023-12-08T09:15:36.252Z,100.00
2023-12-08T09:16:32.920Z,100.00
2023-12-08T09:17:29.576Z,100.00
2023-12-08T09:18:26.420Z,99.83
2023-12-08T09:19:23.272Z,99.17
2023-12-08T09:20:20.501Z,100.00
2023-12-08T09:21:17.897Z,100.00
2023-12-08T09:22:15.815Z,100.00
2023-12-08T09:23:12.906Z,97.62
2023-12-08T09:24:10.468Z,95.31
2023-12-08T09:25:08.209Z,95.02
2023-12-08T09:26:04.889Z,93.98
2023-12-08T09:27:02.512Z,92.83
2023-12-08T09:27:59.277Z,93.14
2023-12-08T09:28:56.008Z,93.22
2023-12-08T09:29:52.919Z,93.36
2023-12-08T09:30:49.544Z,93.45
2023-12-08T09:31:46.735Z,93.94
2023-12-08T09:32:43.882Z,94.04
2023-12-08T09:33:43.230Z,94.41
2023-12-08T09:34:40.352Z,94.87
2023-12-08T09:35:37.341Z,94.55
2023-12-08T09:36:35.073Z,94.21
2023-12-08T09:37:36.419Z,94.45
2023-12-08T09:38:35.048Z,94.07
2023-12-08T09:39:33.186Z,94.31
2023-12-08T09:40:32.842Z,93.88
2023-12-08T09:41:31.843Z,93.44
2023-12-08T09:42:37.465Z,94.12
2023-12-08T09:43:42.923Z,92.70
2023-12-08T09:44:39.625Z,93.19
2023-12-08T09:45:39.059Z,93.46
2023-12-08T09:46:36.355Z,93.72
2023-12-08T09:47:37.120Z,93.60
2023-12-08T09:48:37.856Z,94.81
2023-12-08T09:49:45.636Z,95.31
2023-12-08T09:50:42.648Z,95.34
2023-12-08T09:51:40.065Z,94.92
2023-12-08T09:52:36.889Z,95.89
2023-12-08T09:53:33.884Z,95.82
2023-12-08T09:54:32.341Z,96.35
2023-12-08T09:55:30.294Z,96.39
2023-12-08T09:56:29.665Z,96.12
2023-12-08T09:57:30.350Z,96.49
2023-12-08T09:58:28.171Z,96.58
2023-12-08T09:59:28.450Z,96.98
2023-12-08T10:00:25.471Z,97.92
2023-12-08T10:01:22.153Z,97.50
2023-12-08T10:02:19.797Z,97.88
2023-12-08T10:03:16.549Z,98.11
2023-12-08T10:04:13.792Z,98.86
2023-12-08T10:05:12.272Z,99.61
2023-12-08T10:06:11.129Z,99.19
2023-12-08T10:07:11.574Z,98.57
2023-12-08T10:08:10.952Z,99.13
2023-12-08T10:09:08.755Z,98.17
2023-12-08T10:10:06.349Z,97.48
2023-12-08T10:11:03.102Z,98.29
2023-12-08T10:12:00.323Z,98.64
2023-12-08T10:12:59.440Z,97.98
2023-12-08T10:13:56.265Z,96.70
2023-12-08T10:14:55.681Z,97.06
2023-12-08T10:15:52.401Z,97.62
2023-12-08T10:16:49.222Z,97.42
2023-12-08T10:17:53.774Z,97.11
2023-12-08T10:18:51.036Z,97.22
2023-12-08T10:19:50.334Z,97.71
2023-12-08T10:20:46.990Z,98.29
2023-12-08T10:21:43.636Z,98.10
2023-12-08T10:23:00.548Z,96.71
2023-12-08T10:24:03.764Z,96.11
2023-12-08T10:25:01.766Z,96.25
2023-12-08T10:25:58.429Z,96.70
2023-12-08T10:26:55.205Z,96.45
2023-12-08T10:27:54.531Z,95.82
2023-12-08T10:28:57.994Z,95.10
2023-12-08T10:29:54.745Z,95.97
2023-12-08T10:30:53.169Z,96.02
2023-12-08T10:31:51.723Z,97.17
2023-12-08T10:32:49.454Z,96.98
2023-12-08T10:33:46.398Z,96.54
2023-12-08T10:34:43.056Z,96.33
2023-12-08T10:35:39.958Z,96.48
2023-12-08T10:36:38.284Z,96.17
2023-12-08T10:37:36.538Z,96.44
2023-12-08T10:38:33.279Z,94.99
2023-12-08T10:39:30.711Z,94.23
2023-12-08T10:40:27.486Z,94.29
2023-12-08T10:41:24.196Z,95.24
2023-12-08T10:42:20.877Z,95.43
2023-12-08T10:43:24.765Z,95.78
2023-12-08T10:44:26.730Z,96.48
2023-12-08T10:45:24.341Z,97.09
2023-12-08T10:46:21.887Z,96.46
2023-12-08T10:47:18.823Z,96.19
2023-12-08T10:48:16.042Z,96.75
2023-12-08T10:49:17.178Z,98.40
2023-12-08T10:50:14.416Z,99.09
2023-12-08T10:51:15.369Z,97.60
2023-12-08T10:52:13.385Z,96.57
2023-12-08T10:53:10.942Z,96.11
2023-12-08T10:54:08.289Z,96.68
2023-12-08T10:55:06.823Z,96.91
2023-12-08T10:56:10.630Z,97.34
2023-12-08T10:57:08.588Z,96.85
2023-12-08T10:58:08.901Z,96.76
2023-12-08T10:59:10.946Z,96.82
2023-12-08T11:00:19.075Z,96.73
2023-12-08T11:01:16.226Z,95.71
2023-12-08T11:02:22.337Z,95.99
2023-12-08T11:03:21.745Z,95.75
2023-12-08T11:04:22.830Z,96.30
2023-12-08T11:05:44.485Z,96.67
2023-12-08T11:07:13.797Z,97.28
2023-12-08T11:08:14.757Z,98.10
2023-12-08T11:09:13.585Z,98.12
2023-12-08T11:10:13.449Z,98.26
2023-12-08T11:11:11.196Z,99.26
2023-12-08T11:12:14.037Z,98.95
2023-12-08T11:13:17.846Z,98.61
2023-12-08T11:14:17.433Z,97.95
2023-12-08T11:15:20.189Z,98.21
2023-12-08T11:16:24.692Z,97.73
2023-12-08T11:17:34.677Z,96.87
2023-12-08T11:18:36.384Z,96.19
2023-12-08T11:19:34.906Z,97.17
2023-12-08T11:20:31.947Z,96.98
2023-12-08T11:21:28.971Z,95.08
2023-12-08T11:22:26.105Z,95.37
2023-12-08T11:23:23.869Z,95.38
2023-12-08T11:24:21.887Z,94.98
2023-12-08T11:25:26.846Z,94.80
2023-12-08T11:26:42.314Z,94.14
2023-12-08T11:27:49.032Z,94.63
2023-12-08T11:28:51.546Z,93.84
2023-12-08T11:29:55.131Z,92.91
2023-12-08T11:31:03.828Z,93.02
2023-12-08T11:32:12.673Z,92.86
2023-12-08T11:33:15.902Z,93.50
2023-12-08T11:34:14.767Z,93.66
2023-12-08T11:35:14.160Z,93.63
2023-12-08T11:36:12.086Z,92.71
2023-12-08T11:37:09.519Z,93.02
2023-12-08T11:38:06.537Z,92.24
2023-12-08T11:39:42.128Z,93.13
2023-12-08T11:41:14.889Z,93.27
2023-12-08T11:42:14.089Z,91.75
2023-12-08T11:43:10.774Z,92.08
2023-12-08T11:44:09.180Z,93.22
2023-12-08T11:45:10.425Z,92.39
2023-12-08T11:46:07.238Z,91.88
2023-12-08T11:47:06.615Z,91.82
2023-12-08T11:48:12.862Z,91.54
2023-12-08T11:49:09.684Z,91.14
2023-12-08T11:50:08.352Z,90.90
2023-12-08T11:51:07.150Z,91.49
2023-12-08T11:52:14.546Z,92.27
2023-12-08T11:53:11.985Z,91.81
2023-12-08T11:54:08.653Z,91.53
2023-12-08T11:55:17.338Z,91.23
2023-12-08T11:56:44.798Z,91.59
2023-12-08T11:58:06.781Z,92.32
2023-12-08T11:59:03.470Z,91.49
2023-12-08T12:00:01.055Z,91.77
2023-12-08T12:01:03.491Z,92.19
2023-12-08T12:02:00.208Z,92.44
2023-12-08T12:02:59.362Z,92.38
2023-12-08T12:03:56.281Z,92.63
2023-12-08T12:04:53.009Z,92.11
2023-12-08T12:05:49.836Z,93.54
2023-12-08T12:06:50.776Z,94.41
2023-12-08T12:07:50.993Z,93.93
2023-12-08T12:08:48.182Z,92.57
2023-12-08T12:09:45.953Z,91.81